Time;durP1;ratioP1;P1;durP2;ratioP2;P2;SDS_P1;SDS_P2;PMS_P1;PMS_P2;Temp;Humidity;BMP_temperature;BMP_pressure;BME280_temperature;BME280_humidity;BME280_pressure;Samples;Min_cycle;Max_cycle;Signal;HPM_P1;HPM_P2
2022/05/09 00:01:11;;;;;;;0.80;0.40;;;;;;;;;;4982135;28;20042;-82
2022/05/09 00:03:37;;;;;;;2.20;0.65;;;;;;;;;;4985839;28;20387;-83
2022/05/09 00:06:02;;;;;;;3.00;1.20;;;;;;;;;;5001950;28;20041;-83
2022/05/09 00:08:27;;;;;;;0.20;0.10;;;;;;;;;;4986291;28;20725;-83
2022/05/09 00:10:53;;;;;;;2.92;0.30;;;;;;;;;;4968982;28;20042;-83
2022/05/09 00:13:18;;;;;;;1.00;0.50;;;;;;;;;;4974021;28;20065;-84
2022/05/09 00:15:43;;;;;;;0.40;0.30;;;;;;;;;;4985727;28;20525;-83
2022/05/09 00:18:09;;;;;;;0.80;0.50;;;;;;;;;;4985611;28;20092;-83
2022/05/09 00:20:34;;;;;;;1.27;0.45;;;;;;;;;;4975804;28;20069;-84
2022/05/09 00:22:59;;;;;;;1.08;0.68;;;;;;;;;;4983336;28;20042;-83
2022/05/09 00:25:26;;;;;;;1.80;1.10;;;;;;;;;;4974495;28;20050;-83
2022/05/09 00:27:51;;;;;;;0.60;0.30;;;;;;;;;;4980060;28;20053;-83
2022/05/09 00:30:17;;;;;;;0.38;0.30;;;;;;;;;;4969419;28;20049;-83
2022/05/09 00:32:43;;;;;;;0.63;0.30;;;;;;;;;;4970142;28;20069;-84
2022/05/09 00:35:10;;;;;;;1.80;0.98;;;;;;;;;;4965413;28;20077;-85
2022/05/09 00:37:36;;;;;;;2.00;0.87;;;;;;;;;;4992959;28;20478;-84
2022/05/09 00:40:08;;;;;;;0.47;0.35;;;;;;;;;;4985416;28;20062;-84
2022/05/09 00:42:40;;;;;;;0.95;0.43;;;;;;;;;;4970058;28;20505;-84
2022/05/09 00:45:06;;;;;;;1.02;0.60;;;;;;;;;;4995053;28;20412;-84
2022/05/09 00:47:32;;;;;;;2.17;1.02;;;;;;;;;;5001696;28;20049;-84
2022/05/09 00:50:00;;;;;;;0.73;0.50;;;;;;;;;;4967459;28;20489;-84
2022/05/09 00:52:37;;;;;;;1.10;0.32;;;;;;;;;;4969484;28;20074;-84
2022/05/09 00:55:14;;;;;;;0.55;0.28;;;;;;;;;;5002916;28;20118;-84
2022/05/09 00:57:42;;;;;;;1.27;0.50;;;;;;;;;;4985559;28;20041;-84
2022/05/09 01:00:14;;;;;;;11.85;0.65;;;;;;;;;;5002017;28;20550;-85
2022/05/09 01:02:41;;;;;;;0.38;0.20;;;;;;;;;;4971030;28;20451;-84
2022/05/09 01:05:07;;;;;;;0.90;0.60;;;;;;;;;;4970274;28;20096;-83
2022/05/09 01:07:35;;;;;;;0.38;0.30;;;;;;;;;;4973534;28;20565;-83
2022/05/09 01:10:03;;;;;;;;;;;;;;;;;;4984578;28;20493;-84
2022/05/09 01:12:33;;;;;;;1.00;0.88;;;;;;;;;;4970371;28;19921;-84
2022/05/09 01:15:06;;;;;;;1.08;0.75;;;;;;;;;;4973897;28;20049;-86
2022/05/09 01:17:32;;;;;;;4.00;0.45;;;;;;;;;;5001596;28;20124;-83
2022/05/09 01:19:59;;;;;;;8.90;1.10;;;;;;;;;;4969349;28;20132;-84
2022/05/09 01:22:30;;;;;;;1.17;0.50;;;;;;;;;;4967921;28;20038;-84
2022/05/09 01:25:02;;;;;;;2.80;0.63;;;;;;;;;;5006253;28;20049;-82
2022/05/09 01:27:28;;;;;;;0.52;0.30;;;;;;;;;;4971976;28;20044;-83
2022/05/09 01:30:01;;;;;;;1.75;0.75;;;;;;;;;;4978802;28;20468;-84
2022/05/09 01:32:45;;;;;;;0.73;0.40;;;;;;;;;;4979558;28;20489;-85
2022/05/09 01:35:33;;;;;;;0.75;0.60;;;;;;;;;;4989168;28;20405;-81
2022/05/09 01:38:17;;;;;;;0.57;0.45;;;;;;;;;;5004046;28;20044;-83
2022/05/09 01:40:42;;;;;;;0.82;0.60;;;;;;;;;;5006756;28;20058;-83
2022/05/09 01:43:07;;;;;;;0.95;0.47;;;;;;;;;;4971417;28;20080;-89
2022/05/09 01:45:33;;;;;;;4.07;1.02;;;;;;;;;;4975466;28;20042;-84
2022/05/09 01:50:42;;;;;;;1.48;0.90;;;;;;;;;;4987758;28;20243;-83
2022/05/09 01:53:07;;;;;;;0.32;0.20;;;;;;;;;;4973431;28;20449;-85
2022/05/09 01:55:33;;;;;;;0.57;0.20;;;;;;;;;;4975415;28;20046;-84
2022/05/09 01:57:58;;;;;;;1.77;0.80;;;;;;;;;;4975180;28;20113;-84
2022/05/09 02:00:24;;;;;;;3.08;0.90;;;;;;;;;;4975558;28;20221;-85
2022/05/09 02:02:50;;;;;;;14.68;0.80;;;;;;;;;;4971358;28;20100;-85
2022/05/09 02:05:15;;;;;;;1.27;0.65;;;;;;;;;;4972343;28;20045;-85
2022/05/09 02:07:41;;;;;;;0.55;0.47;;;;;;;;;;4966821;28;20100;-85
2022/05/09 02:10:09;;;;;;;0.95;0.57;;;;;;;;;;4973891;28;20057;-86
2022/05/09 02:12:34;;;;;;;1.45;0.55;;;;;;;;;;4987673;28;20464;-85
2022/05/09 02:15:00;;;;;;;1.42;0.90;;;;;;;;;;4972500;28;20072;-86
2022/05/09 02:17:25;;;;;;;0.20;0.20;;;;;;;;;;4971544;28;20069;-83
2022/05/09 02:19:51;;;;;;;0.95;0.50;;;;;;;;;;4988882;28;20044;-84
2022/05/09 02:22:16;;;;;;;2.55;0.90;;;;;;;;;;4971467;28;20034;-85
2022/05/09 02:24:42;;;;;;;4.13;0.60;;;;;;;;;;4972045;28;20993;-84
2022/05/09 02:27:08;;;;;;;1.38;0.77;;;;;;;;;;4971792;28;20038;-88
2022/05/09 02:29:34;;;;;;;0.27;0.23;;;;;;;;;;4974844;28;20478;-87
2022/05/09 02:32:03;;;;;;;2.00;1.23;;;;;;;;;;4987178;28;20088;-84
2022/05/09 02:34:28;;;;;;;0.63;0.40;;;;;;;;;;4972208;28;20532;-83
2022/05/09 02:36:56;;;;;;;0.70;0.50;;;;;;;;;;4984645;28;20042;-84
2022/05/09 02:39:21;;;;;;;0.68;0.50;;;;;;;;;;4971739;28;20061;-85
2022/05/09 02:41:49;;;;;;;0.60;0.40;;;;;;;;;;4970583;28;20077;-88
2022/05/09 02:44:15;;;;;;;0.55;0.40;;;;;;;;;;4972824;28;20041;-87
2022/05/09 02:46:42;;;;;;;3.60;0.75;;;;;;;;;;4985572;28;20042;-85
2022/05/09 02:49:08;;;;;;;2.17;0.40;;;;;;;;;;4972731;28;20037;-85
2022/05/09 02:51:33;;;;;;;0.77;0.60;;;;;;;;;;4971624;28;20708;-80
2022/05/09 02:53:58;;;;;;;1.00;0.55;;;;;;;;;;4984454;28;20038;-80
2022/05/09 02:56:25;;;;;;;2.45;0.90;;;;;;;;;;4982708;28;20050;-80
2022/05/09 02:58:53;;;;;;;0.95;0.60;;;;;;;;;;4972110;28;20041;-79
2022/05/09 03:01:19;;;;;;;1.45;0.60;;;;;;;;;;4973885;28;20049;-80
2022/05/09 03:06:28;;;;;;;0.80;0.52;;;;;;;;;;4988825;28;20044;-79
2022/05/09 03:08:54;;;;;;;2.30;0.45;;;;;;;;;;4986290;28;20042;-80
2022/05/09 03:11:19;;;;;;;0.63;0.40;;;;;;;;;;4971832;28;20489;-80
2022/05/09 03:13:44;;;;;;;1.13;0.77;;;;;;;;;;4971893;28;20049;-80
2022/05/09 03:16:10;;;;;;;0.75;0.43;;;;;;;;;;4972759;28;20065;-79
2022/05/09 03:18:36;;;;;;;0.60;0.40;;;;;;;;;;4971830;28;20057;-80
2022/05/09 03:21:02;;;;;;;0.68;0.45;;;;;;;;;;4982721;28;20191;-80
2022/05/09 03:23:27;;;;;;;0.77;0.52;;;;;;;;;;4984762;28;20057;-80
2022/05/09 03:25:53;;;;;;;0.52;0.30;;;;;;;;;;4981308;28;20034;-80
2022/05/09 03:28:21;;;;;;;1.23;0.45;;;;;;;;;;4971596;28;20064;-80
2022/05/09 03:30:48;;;;;;;2.08;0.95;;;;;;;;;;4983177;28;20056;-80
2022/05/09 03:33:14;;;;;;;0.73;0.45;;;;;;;;;;4970594;28;20034;-80
2022/05/09 03:35:40;;;;;;;1.63;1.00;;;;;;;;;;4969794;28;20057;-80
2022/05/09 03:38:05;;;;;;;1.33;0.70;;;;;;;;;;4976643;28;20046;-80
2022/05/09 03:40:31;;;;;;;2.33;0.50;;;;;;;;;;4983623;28;20154;-79
2022/05/09 03:42:59;;;;;;;0.40;0.30;;;;;;;;;;4971767;28;20038;-80
2022/05/09 03:45:25;;;;;;;2.13;0.93;;;;;;;;;;4969165;28;20383;-79
2022/05/09 03:47:50;;;;;;;0.98;0.77;;;;;;;;;;4976033;28;20067;-80
2022/05/09 03:50:15;;;;;;;1.30;0.73;;;;;;;;;;4987564;28;20029;-80
2022/05/09 03:52:41;;;;;;;1.25;0.57;;;;;;;;;;4977817;28;20034;-80
2022/05/09 03:55:07;;;;;;;3.15;0.93;;;;;;;;;;4964908;28;20069;-80
2022/05/09 03:57:33;;;;;;;0.88;0.63;;;;;;;;;;4966706;28;20464;-81
2022/05/09 04:00:06;;;;;;;0.88;0.60;;;;;;;;;;4969690;28;20049;-80
2022/05/09 04:02:34;;;;;;;0.70;0.40;;;;;;;;;;4969364;28;20486;-80
2022/05/09 04:05:00;;;;;;;0.75;0.45;;;;;;;;;;4985304;28;20496;-82
2022/05/09 04:07:33;;;;;;;1.85;1.10;;;;;;;;;;4965349;28;20041;-82
2022/05/09 04:09:59;;;;;;;1.13;0.73;;;;;;;;;;4986001;28;20156;-81
2022/05/09 04:12:24;;;;;;;4.32;1.33;;;;;;;;;;4985735;28;20500;-82
2022/05/09 04:17:33;;;;;;;0.90;0.60;;;;;;;;;;4987497;28;20095;-80
2022/05/09 04:19:58;;;;;;;0.63;0.40;;;;;;;;;;4973816;28;20428;-81
2022/05/09 04:22:24;;;;;;;0.95;0.63;;;;;;;;;;4973597;28;20030;-81
2022/05/09 04:24:50;;;;;;;1.23;0.70;;;;;;;;;;4981377;28;20061;-80
2022/05/09 04:27:16;;;;;;;0.82;0.43;;;;;;;;;;4986080;28;20053;-82
2022/05/09 04:29:41;;;;;;;1.05;0.55;;;;;;;;;;4987178;28;20808;-82
2022/05/09 04:32:07;;;;;;;1.08;0.57;;;;;;;;;;4970391;28;20578;-82
2022/05/09 04:34:32;;;;;;;1.52;1.02;;;;;;;;;;4984048;28;20523;-81
2022/05/09 04:36:58;;;;;;;1.67;0.88;;;;;;;;;;4973716;28;20034;-80
2022/05/09 04:39:23;;;;;;;2.53;1.52;;;;;;;;;;4969801;28;20088;-81
2022/05/09 04:41:50;;;;;;;1.10;0.88;;;;;;;;;;4971814;28;20563;-81
2022/05/09 04:44:15;;;;;;;1.80;1.00;;;;;;;;;;4983641;28;20052;-80
2022/05/09 04:46:42;;;;;;;2.05;0.70;;;;;;;;;;4970505;28;20505;-82
2022/05/09 04:49:07;;;;;;;1.15;0.80;;;;;;;;;;4985330;28;20489;-81
2022/05/09 04:51:33;;;;;;;1.27;0.57;;;;;;;;;;4985470;28;20038;-89
2022/05/09 04:53:58;;;;;;;1.52;0.82;;;;;;;;;;4984958;28;20042;-87
2022/05/09 04:56:25;;;;;;;1.83;0.88;;;;;;;;;;4969093;28;20038;-85
2022/05/09 04:58:51;;;;;;;2.42;1.02;;;;;;;;;;4976706;28;20042;-86
2022/05/09 05:01:16;;;;;;;27.80;0.98;;;;;;;;;;5005587;28;20041;-85
2022/05/09 05:03:41;;;;;;;1.30;0.80;;;;;;;;;;4990507;28;20177;-83
2022/05/09 05:06:07;;;;;;;4.63;0.73;;;;;;;;;;4977661;28;20489;-86
2022/05/09 05:08:35;;;;;;;2.47;1.63;;;;;;;;;;4990305;28;20046;-89
2022/05/09 05:11:04;;;;;;;1.05;0.80;;;;;;;;;;4973859;28;20037;-82
2022/05/09 05:13:30;;;;;;;1.10;0.68;;;;;;;;;;4984422;28;20038;-81
2022/05/09 05:15:56;;;;;;;2.38;0.88;;;;;;;;;;4966473;28;20165;-82
2022/05/09 05:18:23;;;;;;;0.98;0.60;;;;;;;;;;4979014;28;20030;-82
2022/05/09 05:20:49;;;;;;;1.02;0.40;;;;;;;;;;4973447;28;20500;-81
2022/05/09 05:23:14;;;;;;;1.20;0.98;;;;;;;;;;4972728;28;20128;-81
2022/05/09 05:25:41;;;;;;;2.10;0.65;;;;;;;;;;4975996;28;20034;-82
2022/05/09 05:28:08;;;;;;;1.55;0.65;;;;;;;;;;5005330;28;20042;-82
2022/05/09 05:30:35;;;;;;;3.97;1.00;;;;;;;;;;4984296;28;20046;-81
2022/05/09 05:33:01;;;;;;;2.58;1.02;;;;;;;;;;4989297;28;20045;-81
2022/05/09 05:35:26;;;;;;;2.92;1.33;;;;;;;;;;4972624;28;20899;-81
2022/05/09 05:37:52;;;;;;;2.30;1.35;;;;;;;;;;4989907;28;20049;-83
2022/05/09 05:40:17;;;;;;;1.13;0.30;;;;;;;;;;4985269;28;20065;-88
2022/05/09 05:42:44;;;;;;;2.17;1.15;;;;;;;;;;4971055;28;20034;-87
2022/05/09 05:45:11;;;;;;;3.05;1.13;;;;;;;;;;4964771;28;20062;-85
2022/05/09 05:47:37;;;;;;;3.38;0.90;;;;;;;;;;4964927;28;20053;-86
2022/05/09 05:50:04;;;;;;;2.83;1.60;;;;;;;;;;4973204;28;20050;-88
2022/05/09 05:52:30;;;;;;;1.13;0.67;;;;;;;;;;4988413;28;20034;-86
2022/05/09 05:54:56;;;;;;;1.95;0.77;;;;;;;;;;4973726;28;20282;-85
2022/05/09 05:57:26;;;;;;;2.55;1.40;;;;;;;;;;4974270;28;20052;-85
2022/05/09 05:59:54;;;;;;;3.58;1.25;;;;;;;;;;4990471;28;20049;-88
2022/05/09 06:02:21;;;;;;;0.63;0.47;;;;;;;;;;4970990;28;20033;-86
2022/05/09 06:04:47;;;;;;;0.73;0.50;;;;;;;;;;4970748;28;20104;-84
2022/05/09 06:07:13;;;;;;;0.93;0.50;;;;;;;;;;4972693;28;20077;-86
2022/05/09 06:09:39;;;;;;;1.75;0.73;;;;;;;;;;4970774;28;20394;-89
2022/05/09 06:12:05;;;;;;;2.28;0.82;;;;;;;;;;4975422;28;20044;-87
2022/05/09 06:14:30;;;;;;;2.38;1.00;;;;;;;;;;4971766;28;20038;-84
2022/05/09 06:16:56;;;;;;;1.77;1.17;;;;;;;;;;4972749;28;20501;-87
2022/05/09 06:19:21;;;;;;;1.30;0.47;;;;;;;;;;4987747;28;20069;-87
2022/05/09 06:21:50;;;;;;;2.25;1.15;;;;;;;;;;4980868;28;20053;-85
2022/05/09 06:24:15;;;;;;;1.27;0.75;;;;;;;;;;4974289;28;20084;-86
2022/05/09 06:26:42;;;;;;;5.82;2.25;;;;;;;;;;4975453;28;20038;-87
2022/05/09 06:29:07;;;;;;;1.05;0.50;;;;;;;;;;4972011;28;20442;-87
2022/05/09 06:31:35;;;;;;;0.73;0.50;;;;;;;;;;4986635;28;20065;-86
2022/05/09 06:34:00;;;;;;;2.30;1.23;;;;;;;;;;4987454;28;20490;-85
2022/05/09 06:36:26;;;;;;;1.17;0.63;;;;;;;;;;4971723;28;20095;-85
2022/05/09 06:38:51;;;;;;;1.33;0.75;;;;;;;;;;4987836;28;20049;-87
2022/05/09 06:41:17;;;;;;;2.30;1.13;;;;;;;;;;4983714;28;20057;-86
2022/05/09 06:43:43;;;;;;;1.00;0.63;;;;;;;;;;4989151;28;20033;-83
2022/05/09 06:46:08;;;;;;;1.13;0.70;;;;;;;;;;4971345;28;20041;-85
2022/05/09 06:48:34;;;;;;;1.23;0.82;;;;;;;;;;4973152;28;20026;-86
2022/05/09 06:50:59;;;;;;;1.15;0.45;;;;;;;;;;4969178;28;20043;-88
2022/05/09 06:53:25;;;;;;;0.98;0.60;;;;;;;;;;4973007;28;20137;-87
2022/05/09 06:55:50;;;;;;;3.53;0.93;;;;;;;;;;4987429;28;20615;-86
2022/05/09 06:58:24;;;;;;;4.30;1.15;;;;;;;;;;4965209;28;20046;-86
2022/05/09 07:00:51;;;;;;;10.80;2.33;;;;;;;;;;4986670;28;20042;-84
2022/05/09 07:03:16;;;;;;;1.92;0.95;;;;;;;;;;5003985;28;20052;-85
2022/05/09 07:05:44;;;;;;;1.58;0.98;;;;;;;;;;4983159;28;20405;-85
2022/05/09 07:08:09;;;;;;;;;;;;;;;;;;4987302;28;20122;-88
2022/05/09 07:10:35;;;;;;;1.88;0.70;;;;;;;;;;4971048;28;20095;-83
2022/05/09 07:13:01;;;;;;;3.00;1.10;;;;;;;;;;4964750;28;20069;-86
2022/05/09 07:15:29;;;;;;;1.58;0.75;;;;;;;;;;4972375;28;20044;-87
2022/05/09 07:17:55;;;;;;;1.73;0.80;;;;;;;;;;4978483;28;20044;-86
2022/05/09 07:20:22;;;;;;;1.63;0.77;;;;;;;;;;4974596;28;20744;-87
2022/05/09 07:22:50;;;;;;;1.60;0.68;;;;;;;;;;4984221;28;20038;-85
2022/05/09 07:25:16;;;;;;;1.23;0.52;;;;;;;;;;4970355;28;20041;-86
2022/05/09 07:27:42;;;;;;;1.77;0.52;;;;;;;;;;4972236;28;20037;-86
2022/05/09 07:30:19;;;;;;;4.18;0.75;;;;;;;;;;5003549;28;20111;-86
2022/05/09 07:32:45;;;;;;;1.65;1.00;;;;;;;;;;4985647;28;20045;-86
2022/05/09 07:35:13;;;;;;;5.45;1.52;;;;;;;;;;4976575;28;20033;-87
2022/05/09 07:37:39;;;;;;;6.88;1.75;;;;;;;;;;4970132;28;20093;-87
2022/05/09 07:40:05;;;;;;;1.73;0.45;;;;;;;;;;4970967;28;20408;-85
2022/05/09 07:42:31;;;;;;;1.70;0.90;;;;;;;;;;4969791;28;20664;-87
2022/05/09 07:44:57;;;;;;;1.70;0.80;;;;;;;;;;4966564;28;20057;-86
2022/05/09 07:47:23;;;;;;;2.45;1.02;;;;;;;;;;4969218;28;20045;-87
2022/05/09 07:49:49;;;;;;;1.67;0.68;;;;;;;;;;4981493;28;21542;-87
2022/05/09 07:52:15;;;;;;;1.42;0.57;;;;;;;;;;4985805;28;20026;-86
2022/05/09 07:54:40;;;;;;;1.35;0.73;;;;;;;;;;4980674;28;20409;-87
2022/05/09 07:57:05;;;;;;;2.28;1.00;;;;;;;;;;4982675;28;20168;-88
2022/05/09 07:59:31;;;;;;;2.20;0.82;;;;;;;;;;4985169;28;20523;-86
2022/05/09 08:01:56;;;;;;;4.03;1.20;;;;;;;;;;4984436;28;20598;-85
2022/05/09 08:04:22;;;;;;;1.45;0.55;;;;;;;;;;4970630;28;20037;-87
2022/05/09 08:06:48;;;;;;;2.67;0.73;;;;;;;;;;4970122;28;20063;-85
2022/05/09 08:09:13;;;;;;;3.05;1.05;;;;;;;;;;4969096;28;20045;-87
2022/05/09 08:11:39;;;;;;;10.52;0.95;;;;;;;;;;4970779;28;20405;-88
2022/05/09 08:14:05;;;;;;;1.88;0.70;;;;;;;;;;4976095;28;20552;-85
2022/05/09 08:16:31;;;;;;;2.28;0.88;;;;;;;;;;4969924;28;20038;-85
2022/05/09 08:18:58;;;;;;;2.50;1.02;;;;;;;;;;4970639;28;20128;-85
2022/05/09 08:21:24;;;;;;;1.92;0.80;;;;;;;;;;4981379;28;20037;-86
2022/05/09 08:23:51;;;;;;;1.23;0.65;;;;;;;;;;4974530;28;20511;-85
2022/05/09 08:26:19;;;;;;;2.33;1.20;;;;;;;;;;4981449;28;20030;-85
2022/05/09 08:28:44;;;;;;;1.05;0.43;;;;;;;;;;4964072;28;20107;-85
2022/05/09 08:31:10;;;;;;;1.60;0.60;;;;;;;;;;4970655;28;20033;-84
2022/05/09 08:33:36;;;;;;;0.55;0.40;;;;;;;;;;4976679;28;20084;-86
2022/05/09 08:36:03;;;;;;;1.98;0.70;;;;;;;;;;4990361;28;20042;-86
2022/05/09 08:38:31;;;;;;;1.38;0.68;;;;;;;;;;4987317;28;20037;-88
2022/05/09 08:41:14;;;;;;;2.85;0.77;;;;;;;;;;4989817;28;20120;-89
2022/05/09 08:43:55;;;;;;;1.08;0.50;;;;;;;;;;4991345;28;20046;-88
2022/05/09 08:46:36;;;;;;;1.52;0.55;;;;;;;;;;4972859;28;20038;-87
2022/05/09 08:49:15;;;;;;;0.98;0.47;;;;;;;;;;4974391;28;20065;-87
2022/05/09 08:51:46;;;;;;;2.03;1.08;;;;;;;;;;4974047;28;20034;-88
2022/05/09 08:54:20;;;;;;;0.55;0.32;;;;;;;;;;5007153;28;20312;-85
2022/05/09 08:56:47;;;;;;;0.63;0.32;;;;;;;;;;4989517;28;20440;-86
2022/05/09 08:59:18;;;;;;;2.25;0.95;;;;;;;;;;4976617;28;20554;-86
2022/05/09 09:01:52;;;;;;;0.68;0.28;;;;;;;;;;4989401;28;20041;-88
2022/05/09 09:04:30;;;;;;;0.77;0.40;;;;;;;;;;4973997;28;20394;-86
2022/05/09 09:07:10;;;;;;;0.40;0.20;;;;;;;;;;4971682;28;20100;-85
2022/05/09 09:09:45;;;;;;;0.95;0.28;;;;;;;;;;5008021;28;20033;-80
2022/05/09 09:12:39;;;;;;;0.70;0.50;;;;;;;;;;4994077;28;20588;-87
2022/05/09 09:15:26;;;;;;;2.28;0.30;;;;;;;;;;4957137;28;20034;-86
2022/05/09 09:18:05;;;;;;;0.60;0.20;;;;;;;;;;4973587;28;20100;-87
2022/05/09 09:20:36;;;;;;;0.20;0.10;;;;;;;;;;4989613;28;20440;-88
2022/05/09 09:23:04;;;;;;;1.50;0.43;;;;;;;;;;4990332;28;20041;-88
2022/05/09 09:25:57;;;;;;;1.48;0.43;;;;;;;;;;4993918;28;20042;-88
2022/05/09 09:28:38;;;;;;;0.95;0.40;;;;;;;;;;4983706;28;20034;-86
2022/05/09 09:31:10;;;;;;;0.52;0.30;;;;;;;;;;4965254;28;20033;-87
2022/05/09 09:33:38;;;;;;;0.28;0.17;;;;;;;;;;4974052;28;20563;-86
2022/05/09 09:36:10;;;;;;;0.38;0.13;;;;;;;;;;4989306;28;20049;-87
2022/05/09 09:38:40;;;;;;;0.47;0.20;;;;;;;;;;4974794;28;20038;-87
2022/05/09 09:41:21;;;;;;;0.25;0.10;;;;;;;;;;4979945;28;21099;-86
2022/05/09 09:43:48;;;;;;;0.68;0.22;;;;;;;;;;4988987;28;20065;-86
2022/05/09 09:46:13;;;;;;;1.00;0.68;;;;;;;;;;4982347;28;20084;-84
2022/05/09 09:48:39;;;;;;;0.97;0.50;;;;;;;;;;4974158;28;20073;-87
2022/05/09 09:51:13;;;;;;;1.03;0.43;;;;;;;;;;4973775;28;20037;-86
2022/05/09 09:53:48;;;;;;;2.08;0.32;;;;;;;;;;4973961;28;20743;-86
2022/05/09 09:56:22;;;;;;;0.50;0.20;;;;;;;;;;4978023;28;20125;-85
2022/05/09 09:58:59;;;;;;;2.67;0.68;;;;;;;;;;4979326;28;20045;-86
2022/05/09 10:01:30;;;;;;;0.52;0.20;;;;;;;;;;4977349;28;20378;-85
2022/05/09 10:04:13;;;;;;;0.77;0.47;;;;;;;;;;4973447;28;20050;-86
2022/05/09 10:07:06;;;;;;;0.63;0.35;;;;;;;;;;4972054;28;20112;-86
2022/05/09 10:09:38;;;;;;;1.75;0.52;;;;;;;;;;4996123;28;20586;-86
2022/05/09 10:12:21;;;;;;;0.60;0.35;;;;;;;;;;4972295;28;20034;-87
2022/05/09 10:14:47;;;;;;;0.90;0.30;;;;;;;;;;4984907;28;20121;-86
2022/05/09 10:17:18;;;;;;;1.03;0.33;;;;;;;;;;4984021;28;20117;-87
2022/05/09 10:19:44;;;;;;;2.40;1.10;;;;;;;;;;4972981;28;20344;-84
2022/05/09 10:25:11;;;;;;;0.63;0.20;;;;;;;;;;5004859;28;20045;-85
2022/05/09 10:27:38;;;;;;;0.63;0.20;;;;;;;;;;4972168;28;20148;-89
2022/05/09 10:30:48;;;;;;;0.45;0.15;;;;;;;;;;4974056;28;20030;-86
2022/05/09 10:33:14;;;;;;;0.43;0.10;;;;;;;;;;4983226;28;20033;-84
2022/05/09 10:35:55;;;;;;;0.13;0.10;;;;;;;;;;4993527;28;20779;-87
2022/05/09 10:38:38;;;;;;;1.75;0.40;;;;;;;;;;4972106;28;20038;-85
2022/05/09 10:41:09;;;;;;;0.20;0.10;;;;;;;;;;5005230;28;20121;-86
2022/05/09 10:43:57;;;;;;;0.90;0.30;;;;;;;;;;4986657;28;20146;-85
2022/05/09 10:46:33;;;;;;;0.63;0.20;;;;;;;;;;4971621;28;20116;-88
2022/05/09 10:49:02;;;;;;;1.05;0.40;;;;;;;;;;4973126;28;20034;-86
2022/05/09 10:51:35;;;;;;;0.38;0.10;;;;;;;;;;4987879;28;20818;-87
2022/05/09 10:54:18;;;;;;;0.65;0.30;;;;;;;;;;4971849;28;20037;-86
2022/05/09 10:56:46;;;;;;;0.73;0.20;;;;;;;;;;4970965;28;20048;-89
2022/05/09 10:59:19;;;;;;;0.80;0.32;;;;;;;;;;4972979;28;20058;-87
2022/05/09 11:01:56;;;;;;;0.57;0.17;;;;;;;;;;4974836;28;20096;-85
2022/05/09 11:04:22;;;;;;;1.13;0.40;;;;;;;;;;4984974;28;20196;-86
2022/05/09 11:07:02;;;;;;;0.50;0.20;;;;;;;;;;4986959;28;20121;-87
2022/05/09 11:09:37;;;;;;;0.40;0.20;;;;;;;;;;5004366;28;20499;-86
2022/05/09 11:12:12;;;;;;;0.60;0.13;;;;;;;;;;5005750;28;20033;-85
2022/05/09 11:14:53;;;;;;;1.75;0.63;;;;;;;;;;4971303;28;20040;-88
2022/05/09 11:17:48;;;;;;;1.10;0.32;;;;;;;;;;4973012;28;20492;-86
2022/05/09 11:20:35;;;;;;;0.35;0.20;;;;;;;;;;4983807;28;20037;-86
2022/05/09 11:23:22;;;;;;;0.63;0.28;;;;;;;;;;4988487;28;20038;-86
2022/05/09 11:25:58;;;;;;;2.05;0.50;;;;;;;;;;4979084;28;20053;-86
2022/05/09 11:28:43;;;;;;;1.08;0.35;;;;;;;;;;4971548;28;20040;-86
2022/05/09 11:31:35;;;;;;;0.15;0.10;;;;;;;;;;4971989;28;20125;-85
2022/05/09 11:34:03;;;;;;;0.30;0.10;;;;;;;;;;4989913;28;20553;-85
2022/05/09 11:36:32;;;;;;;0.55;0.20;;;;;;;;;;5003080;28;20555;-84
2022/05/09 11:39:35;;;;;;;0.75;0.17;;;;;;;;;;5005733;28;20398;-84
2022/05/09 11:45:20;;;;;;;0.63;0.22;;;;;;;;;;5004243;28;20092;-84
2022/05/09 11:47:51;;;;;;;0.63;0.30;;;;;;;;;;4969440;28;20037;-85
2022/05/09 11:50:42;;;;;;;0.45;0.20;;;;;;;;;;4978770;28;20032;-86
2022/05/09 11:53:07;;;;;;;0.25;0.10;;;;;;;;;;4970645;28;20394;-84
2022/05/09 11:55:33;;;;;;;0.30;0.10;;;;;;;;;;4968750;28;20038;-86
2022/05/09 11:58:00;;;;;;;0.38;0.17;;;;;;;;;;4963885;28;20034;-87
2022/05/09 12:00:26;;;;;;;0.70;0.20;;;;;;;;;;4986646;28;20083;-87
2022/05/09 12:02:54;;;;;;;0.95;0.25;;;;;;;;;;4987136;28;20116;-86
2022/05/09 12:05:25;;;;;;;0.52;0.30;;;;;;;;;;4966834;28;20062;-86
2022/05/09 12:08:23;;;;;;;0.60;0.30;;;;;;;;;;4984431;28;20053;-90
2022/05/09 12:10:50;;;;;;;1.08;0.30;;;;;;;;;;4976720;28;20041;-89
2022/05/09 12:13:24;;;;;;;;;;;;;;;;;;4978813;28;20038;-85
2022/05/09 12:15:52;;;;;;;0.30;0.10;;;;;;;;;;4982667;28;19922;-85
2022/05/09 12:18:33;;;;;;;0.68;0.20;;;;;;;;;;4967985;28;20153;-83
2022/05/09 12:21:11;;;;;;;0.00;0.00;;;;;;;;;;4966662;28;20034;-81
2022/05/09 12:23:39;;;;;;;0.60;0.30;;;;;;;;;;4967684;28;20045;-82
2022/05/09 12:26:05;;;;;;;1.55;0.65;;;;;;;;;;4974355;28;20577;-81
2022/05/09 12:28:32;;;;;;;0.60;0.25;;;;;;;;;;4982665;28;20125;-83
2022/05/09 12:31:17;;;;;;;0.70;0.28;;;;;;;;;;4974460;28;20034;-81
2022/05/09 12:33:45;;;;;;;0.55;0.32;;;;;;;;;;4979493;28;20047;-82
2022/05/09 12:36:16;;;;;;;0.22;0.13;;;;;;;;;;4984815;28;20038;-82
2022/05/09 12:38:44;;;;;;;0.82;0.43;;;;;;;;;;4984911;28;20057;-82
2022/05/09 12:41:11;;;;;;;1.35;0.52;;;;;;;;;;4973850;28;20169;-82
2022/05/09 12:43:39;;;;;;;0.52;0.30;;;;;;;;;;4982683;28;20073;-83
2022/05/09 12:46:05;;;;;;;;;;;;;;;;;;4966367;28;20042;-82
2022/05/09 12:48:30;;;;;;;6.50;0.63;;;;;;;;;;4974107;28;19929;-82
2022/05/09 12:51:03;;;;;;;0.80;0.22;;;;;;;;;;4997850;28;20062;-81
2022/05/09 12:53:32;;;;;;;4.22;0.80;;;;;;;;;;4967758;28;20486;-82
2022/05/09 12:55:57;;;;;;;1.58;0.43;;;;;;;;;;4966147;28;20061;-82
2022/05/09 12:58:35;;;;;;;0.50;0.30;;;;;;;;;;4983758;28;20065;-82
2022/05/09 13:01:23;;;;;;;;;;;;;;;;;;4977565;28;20038;-83
2022/05/09 13:03:54;;;;;;;1.25;0.40;;;;;;;;;;4982844;28;20381;-83
2022/05/09 13:06:28;;;;;;;1.27;0.50;;;;;;;;;;4983184;28;20042;-82
2022/05/09 13:08:54;;;;;;;0.38;0.13;;;;;;;;;;4983889;28;20047;-85
2022/05/09 13:11:30;;;;;;;0.40;0.28;;;;;;;;;;4981705;28;20087;-83
2022/05/09 13:14:18;;;;;;;0.68;0.30;;;;;;;;;;4968423;28;20919;-82
2022/05/09 13:17:00;;;;;;;1.00;0.47;;;;;;;;;;4963685;28;20035;-86
2022/05/09 13:19:27;;;;;;;0.10;0.10;;;;;;;;;;4984152;28;20034;-86
2022/05/09 13:21:52;;;;;;;0.60;0.40;;;;;;;;;;4969752;28;20452;-83
2022/05/09 13:24:22;;;;;;;1.30;0.63;;;;;;;;;;4971226;28;20038;-83
2022/05/09 13:26:54;;;;;;;1.08;0.60;;;;;;;;;;4986727;28;20091;-83
2022/05/09 13:29:28;;;;;;;0.25;0.20;;;;;;;;;;4988488;28;20056;-82
2022/05/09 13:31:55;;;;;;;0.88;0.38;;;;;;;;;;4985902;28;20426;-83
2022/05/09 13:34:22;;;;;;;1.63;0.55;;;;;;;;;;4974178;28;20034;-84
2022/05/09 13:36:48;;;;;;;0.77;0.35;;;;;;;;;;4987376;28;20050;-84
2022/05/09 13:39:26;;;;;;;2.65;0.43;;;;;;;;;;4971339;28;20061;-82
2022/05/09 13:41:53;;;;;;;0.03;0.03;;;;;;;;;;4989477;28;20049;-85
2022/05/09 13:44:21;;;;;;;1.02;0.50;;;;;;;;;;4986706;28;20076;-83
2022/05/09 13:46:47;;;;;;;0.82;0.38;;;;;;;;;;4985379;28;20445;-85
2022/05/09 13:49:15;;;;;;;0.52;0.22;;;;;;;;;;4973758;28;20121;-82
2022/05/09 13:51:42;;;;;;;3.60;0.50;;;;;;;;;;4953148;28;20037;-85
2022/05/09 13:54:09;;;;;;;0.43;0.20;;;;;;;;;;4961772;28;20040;-83
2022/05/09 13:56:36;;;;;;;0.35;0.10;;;;;;;;;;4984552;28;20117;-83
2022/05/09 13:59:08;;;;;;;0.85;0.35;;;;;;;;;;4980978;28;20043;-84
2022/05/09 14:01:42;;;;;;;0.40;0.20;;;;;;;;;;4978133;28;20030;-82
2022/05/09 14:04:10;;;;;;;0.30;0.20;;;;;;;;;;4985575;28;20042;-82
2022/05/09 14:06:37;;;;;;;0.20;0.10;;;;;;;;;;4970862;28;20031;-84
2022/05/09 14:09:10;;;;;;;0.10;0.08;;;;;;;;;;4984413;28;20042;-84
2022/05/09 14:11:39;;;;;;;0.35;0.15;;;;;;;;;;4983682;28;20034;-85
2022/05/09 14:14:07;;;;;;;0.95;0.30;;;;;;;;;;4968834;28;20038;-83
2022/05/09 14:16:41;;;;;;;0.30;0.10;;;;;;;;;;4968520;28;20493;-82
2022/05/09 14:19:07;;;;;;;0.90;0.55;;;;;;;;;;4986356;28;20034;-82
2022/05/09 14:21:42;;;;;;;0.27;0.17;;;;;;;;;;4988171;28;20038;-85
2022/05/09 14:24:09;;;;;;;0.40;0.20;;;;;;;;;;4969521;28;20069;-83
2022/05/09 14:29:36;;;;;;;0.57;0.20;;;;;;;;;;4985604;28;20133;-83
2022/05/09 14:32:06;;;;;;;0.98;0.47;;;;;;;;;;4963019;28;20053;-82
2022/05/09 14:34:50;;;;;;;0.63;0.22;;;;;;;;;;4987151;28;20038;-84
2022/05/09 14:37:25;;;;;;;0.35;0.10;;;;;;;;;;4985241;28;20093;-81
2022/05/09 14:39:59;;;;;;;2.95;0.95;;;;;;;;;;4978012;28;20633;-82
2022/05/09 14:42:25;;;;;;;0.55;0.30;;;;;;;;;;4993789;28;20383;-82
2022/05/09 14:44:53;;;;;;;0.28;0.13;;;;;;;;;;4984198;28;20042;-81
2022/05/09 14:47:27;;;;;;;0.82;0.35;;;;;;;;;;4962433;28;20037;-83
2022/05/09 14:49:56;;;;;;;0.77;0.30;;;;;;;;;;5002132;28;20085;-81
2022/05/09 14:52:42;;;;;;;0.63;0.30;;;;;;;;;;4994088;28;20034;-82
2022/05/09 14:58:17;;;;;;;2.70;0.65;;;;;;;;;;4986705;28;20300;-82
2022/05/09 15:00:49;;;;;;;8.88;0.45;;;;;;;;;;4985589;28;20073;-81
2022/05/09 15:03:22;;;;;;;0.80;0.45;;;;;;;;;;4967276;28;20369;-82
2022/05/09 15:05:48;;;;;;;0.50;0.30;;;;;;;;;;4984793;28;20058;-80
2022/05/09 15:08:13;;;;;;;0.43;0.10;;;;;;;;;;4986122;28;20041;-81
2022/05/09 15:10:41;;;;;;;0.50;0.20;;;;;;;;;;4973264;28;20042;-82
2022/05/09 15:13:15;;;;;;;0.80;0.40;;;;;;;;;;4992948;28;20089;-83
2022/05/09 15:15:43;;;;;;;0.47;0.20;;;;;;;;;;4982064;28;20033;-82
2022/05/09 15:18:08;;;;;;;1.10;0.55;;;;;;;;;;4961211;28;20038;-82